Time;durP1;ratioP1;P1;durP2;ratioP2;P2;SDS_P1;SDS_P2;PMS_P1;PMS_P2;Temp;Humidity;BMP_temperature;BMP_pressure;BME280_temperature;BME280_humidity;BME280_pressure;Samples;Min_cycle;Max_cycle;Signal;HPM_P1;HPM_P2
2022/05/09 00:02:15;;;;;;;9.00;6.53;;;;;;;;;;5025787;28;20049;-84
2022/05/09 00:04:41;;;;;;;8.35;6.18;;;;;;;;;;5045106;28;20018;-86
2022/05/09 00:07:07;;;;;;;20.20;7.18;;;;;;;;;;5047404;28;20491;-86
2022/05/09 00:09:33;;;;;;;9.05;6.68;;;;;;;;;;5021134;28;20025;-84
2022/05/09 00:11:58;;;;;;;9.82;7.07;;;;;;;;;;5047252;28;20094;-84
2022/05/09 00:14:24;;;;;;;8.65;6.38;;;;;;;;;;5042986;28;20060;-84
2022/05/09 00:16:51;;;;;;;9.70;6.65;;;;;;;;;;5049923;28;20111;-85
2022/05/09 00:19:20;;;;;;;8.55;6.28;;;;;;;;;;5029329;28;20036;-86
2022/05/09 00:21:47;;;;;;;9.27;6.55;;;;;;;;;;5036006;28;20041;-86
2022/05/09 00:24:33;;;;;;;13.02;7.05;;;;;;;;;;5022969;28;20025;-86
2022/05/09 00:26:59;;;;;;;8.07;6.90;;;;;;;;;;5009527;28;20033;-86
2022/05/09 00:29:24;;;;;;;10.65;7.63;;;;;;;;;;5031836;28;20347;-86
2022/05/09 00:31:52;;;;;;;9.52;6.60;;;;;;;;;;5007197;28;20052;-86
2022/05/09 00:34:21;;;;;;;8.32;6.88;;;;;;;;;;5013408;28;20031;-86
2022/05/09 00:36:48;;;;;;;11.32;6.70;;;;;;;;;;5043338;28;20039;-87
2022/05/09 00:39:14;;;;;;;11.40;7.28;;;;;;;;;;5013076;28;20029;-87
2022/05/09 00:41:42;;;;;;;10.43;6.53;;;;;;;;;;5026479;28;20049;-86
2022/05/09 00:44:09;;;;;;;10.02;6.75;;;;;;;;;;5022221;28;20025;-87
2022/05/09 00:46:36;;;;;;;10.52;7.15;;;;;;;;;;5040459;28;20391;-86
2022/05/09 00:49:09;;;;;;;9.50;6.38;;;;;;;;;;5046050;28;20059;-86
2022/05/09 00:51:37;;;;;;;10.00;6.78;;;;;;;;;;5061140;28;20061;-87
2022/05/09 00:54:04;;;;;;;12.65;7.57;;;;;;;;;;5044686;28;20016;-87
2022/05/09 00:56:39;;;;;;;10.25;7.43;;;;;;;;;;5053296;28;20047;-86
2022/05/09 00:59:11;;;;;;;9.23;6.95;;;;;;;;;;5060229;28;20025;-86
2022/05/09 01:01:39;;;;;;;9.40;6.97;;;;;;;;;;5030452;28;20033;-86
2022/05/09 01:04:15;;;;;;;12.40;7.78;;;;;;;;;;5038942;28;20045;-86
2022/05/09 01:06:41;;;;;;;10.05;7.70;;;;;;;;;;5038329;28;20018;-87
2022/05/09 01:09:10;;;;;;;15.73;7.43;;;;;;;;;;5043301;28;20131;-86
2022/05/09 01:11:40;;;;;;;9.25;6.70;;;;;;;;;;5019019;28;20026;-86
2022/05/09 01:14:32;;;;;;;10.15;6.68;;;;;;;;;;5018875;28;20021;-86
2022/05/09 01:16:59;;;;;;;12.48;7.45;;;;;;;;;;5024538;28;20159;-86
2022/05/09 01:19:36;;;;;;;9.70;7.22;;;;;;;;;;5034903;28;20055;-87
2022/05/09 01:22:16;;;;;;;10.20;6.95;;;;;;;;;;5041821;28;20025;-87
2022/05/09 01:24:41;;;;;;;10.25;6.95;;;;;;;;;;5039091;28;20032;-86
2022/05/09 01:27:07;;;;;;;9.05;6.78;;;;;;;;;;5017625;28;20024;-86
2022/05/09 01:29:47;;;;;;;13.63;7.80;;;;;;;;;;5028354;28;20028;-86
2022/05/09 01:32:17;;;;;;;9.02;7.07;;;;;;;;;;5021753;28;20036;-86
2022/05/09 01:34:48;;;;;;;8.25;6.88;;;;;;;;;;5010697;28;20079;-86
2022/05/09 01:37:15;;;;;;;8.17;6.83;;;;;;;;;;5017884;28;20097;-86
2022/05/09 01:39:41;;;;;;;9.27;7.25;;;;;;;;;;4998812;28;20068;-86
2022/05/09 01:42:09;;;;;;;9.40;7.28;;;;;;;;;;5015824;28;20037;-86
2022/05/09 01:44:34;;;;;;;11.65;7.78;;;;;;;;;;5016305;28;20036;-86
2022/05/09 01:49:45;;;;;;;10.98;7.07;;;;;;;;;;5036287;28;20340;-86
2022/05/09 01:52:16;;;;;;;14.07;7.13;;;;;;;;;;5016779;28;20022;-86
2022/05/09 01:54:43;;;;;;;10.00;7.50;;;;;;;;;;5029142;28;20071;-86
2022/05/09 01:57:10;;;;;;;8.77;7.13;;;;;;;;;;5021549;28;20030;-86
2022/05/09 01:59:37;;;;;;;9.27;7.03;;;;;;;;;;4999667;28;20030;-86
2022/05/09 02:02:09;;;;;;;13.30;7.75;;;;;;;;;;5014323;28;20026;-87
2022/05/09 02:04:38;;;;;;;8.63;7.00;;;;;;;;;;5016861;28;20058;-87
2022/05/09 02:07:23;;;;;;;10.00;7.30;;;;;;;;;;5018425;28;20048;-86
2022/05/09 02:10:11;;;;;;;9.30;7.43;;;;;;;;;;5017795;28;20026;-86
2022/05/09 02:12:39;;;;;;;13.40;8.10;;;;;;;;;;5017021;28;20175;-86
2022/05/09 02:15:07;;;;;;;16.02;7.85;;;;;;;;;;5003055;28;20026;-86
2022/05/09 02:17:33;;;;;;;10.63;7.70;;;;;;;;;;5023002;28;20089;-87
2022/05/09 02:19:58;;;;;;;9.70;7.50;;;;;;;;;;5014364;28;20108;-86
2022/05/09 02:23:01;;;;;;;9.55;7.03;;;;;;;;;;5010728;28;20025;-86
2022/05/09 02:25:29;;;;;;;8.55;6.85;;;;;;;;;;5022455;28;20032;-86
2022/05/09 02:27:58;;;;;;;10.30;7.45;;;;;;;;;;5019484;28;20025;-87
2022/05/09 02:30:23;;;;;;;10.98;7.75;;;;;;;;;;5016939;28;20085;-86
2022/05/09 02:32:49;;;;;;;10.73;7.85;;;;;;;;;;5027923;28;20049;-88
2022/05/09 02:35:15;;;;;;;9.98;7.85;;;;;;;;;;5034891;28;20037;-86
2022/05/09 02:37:41;;;;;;;13.25;7.72;;;;;;;;;;5034436;28;20470;-85
2022/05/09 02:40:07;;;;;;;12.48;7.68;;;;;;;;;;5033579;28;20021;-85
2022/05/09 02:42:34;;;;;;;9.25;7.20;;;;;;;;;;5034764;28;20028;-86
2022/05/09 02:45:22;;;;;;;11.07;8.05;;;;;;;;;;5022136;28;20116;-88
2022/05/09 02:48:10;;;;;;;11.95;7.13;;;;;;;;;;5014518;28;20095;-85
2022/05/09 02:50:35;;;;;;;9.25;7.15;;;;;;;;;;5019340;28;20025;-86
2022/05/09 02:53:01;;;;;;;9.40;7.43;;;;;;;;;;5020094;28;20024;-87
2022/05/09 02:55:26;;;;;;;9.20;7.72;;;;;;;;;;5045981;28;20044;-86
2022/05/09 02:57:57;;;;;;;8.80;7.47;;;;;;;;;;5018860;28;20021;-85
2022/05/09 03:00:25;;;;;;;12.38;8.50;;;;;;;;;;5033457;28;20512;-86
2022/05/09 03:05:38;;;;;;;8.23;6.93;;;;;;;;;;5038395;28;20091;-87
2022/05/09 03:08:04;;;;;;;12.20;7.65;;;;;;;;;;5029368;28;20040;-86
2022/05/09 03:10:31;;;;;;;12.38;7.82;;;;;;;;;;5017161;28;20068;-86
2022/05/09 03:13:01;;;;;;;8.82;6.85;;;;;;;;;;5029024;28;20571;-86
2022/05/09 03:15:31;;;;;;;10.60;7.32;;;;;;;;;;5034917;28;20134;-86
2022/05/09 05:15:54;;;;;;;17.02;11.30;;;;;;;;;;4958229;29;20074;-87
2022/05/09 05:18:27;;;;;;;17.08;10.82;;;;;;;;;;4957593;29;20366;-88
2022/05/09 05:20:53;;;;;;;14.57;11.20;;;;;;;;;;4957859;28;20016;-88
2022/05/09 05:23:19;;;;;;;20.63;13.18;;;;;;;;;;5015094;28;20029;-87
2022/05/09 05:25:45;;;;;;;18.33;11.57;;;;;;;;;;5025413;28;20443;-87
2022/05/09 05:28:13;;;;;;;18.92;13.18;;;;;;;;;;5035400;28;20112;-90
2022/05/09 05:30:38;;;;;;;16.30;12.02;;;;;;;;;;5016646;28;20395;-87
2022/05/09 05:33:04;;;;;;;25.00;12.77;;;;;;;;;;5045910;28;20025;-89
2022/05/09 05:35:30;;;;;;;15.23;12.20;;;;;;;;;;5031150;28;20175;-89
2022/05/09 05:37:56;;;;;;;19.88;12.73;;;;;;;;;;5025028;28;20056;-88
2022/05/09 05:40:22;;;;;;;19.65;12.80;;;;;;;;;;5023022;28;20021;-88
2022/05/09 05:42:48;;;;;;;22.48;12.90;;;;;;;;;;5046656;28;20101;-87
2022/05/09 05:45:17;;;;;;;19.73;12.75;;;;;;;;;;5020218;28;20025;-88
2022/05/09 05:47:42;;;;;;;16.98;13.07;;;;;;;;;;5004114;28;20031;-88
2022/05/09 05:50:10;;;;;;;18.33;12.25;;;;;;;;;;5044972;28;20092;-88
2022/05/09 05:52:36;;;;;;;20.80;12.63;;;;;;;;;;5024315;28;20025;-88
2022/05/09 05:55:01;;;;;;;21.17;13.05;;;;;;;;;;5016342;28;20340;-88
2022/05/09 05:57:29;;;;;;;18.23;11.85;;;;;;;;;;5032968;28;20222;-89
2022/05/09 06:00:09;;;;;;;15.88;12.60;;;;;;;;;;5016248;28;20035;-88
2022/05/09 06:02:38;;;;;;;17.83;12.15;;;;;;;;;;5016893;28;20121;-89
2022/05/09 06:05:07;;;;;;;15.95;12.27;;;;;;;;;;5025028;28;20475;-89
2022/05/09 06:07:32;;;;;;;13.77;11.52;;;;;;;;;;5027930;28;20036;-87
2022/05/09 06:09:58;;;;;;;16.45;11.73;;;;;;;;;;5016985;28;20025;-88
2022/05/09 06:12:23;;;;;;;15.88;11.35;;;;;;;;;;5034910;28;20025;-87
2022/05/09 06:15:24;;;;;;;13.77;10.73;;;;;;;;;;5031337;28;20018;-88
2022/05/09 06:17:37;;;;;;;20.40;11.30;;;;;;;;;;5034370;28;20040;-87
2022/05/09 06:20:07;;;;;;;15.68;9.90;;;;;;;;;;5020643;28;20071;-87
2022/05/09 06:22:36;;;;;;;13.65;9.48;;;;;;;;;;5019369;28;20069;-87
2022/05/09 06:25:03;;;;;;;16.17;9.40;;;;;;;;;;5039465;28;20443;-88
2022/05/09 06:27:29;;;;;;;13.95;10.07;;;;;;;;;;5017144;28;20033;-88
2022/05/09 06:29:54;;;;;;;13.02;8.98;;;;;;;;;;5020876;28;20016;-87
2022/05/09 06:32:23;;;;;;;12.65;8.45;;;;;;;;;;5035267;28;20083;-87
2022/05/09 06:34:50;;;;;;;9.82;7.72;;;;;;;;;;5025339;28;20018;-88
2022/05/09 06:37:16;;;;;;;8.65;7.10;;;;;;;;;;5021656;28;20093;-87
2022/05/09 06:39:42;;;;;;;10.63;6.75;;;;;;;;;;5029135;28;20041;-87
2022/05/09 06:42:08;;;;;;;8.05;7.13;;;;;;;;;;5033269;28;20026;-88
2022/05/09 06:44:35;;;;;;;9.73;6.20;;;;;;;;;;5036559;28;20029;-88
2022/05/09 06:47:01;;;;;;;9.40;6.60;;;;;;;;;;5033844;28;20092;-87
2022/05/09 06:49:27;;;;;;;12.30;6.43;;;;;;;;;;5036601;28;20025;-88
2022/05/09 06:51:52;;;;;;;10.38;6.68;;;;;;;;;;5058692;28;20014;-88
2022/05/09 06:54:20;;;;;;;11.30;6.50;;;;;;;;;;5040863;28;20022;-89
2022/05/09 06:56:46;;;;;;;11.07;5.60;;;;;;;;;;5021611;28;20014;-88
2022/05/09 06:59:11;;;;;;;11.25;6.32;;;;;;;;;;5033541;28;20483;-88
2022/05/09 07:01:37;;;;;;;7.68;5.43;;;;;;;;;;5018657;28;20029;-88
2022/05/09 07:04:03;;;;;;;8.82;5.63;;;;;;;;;;5034818;28;20045;-88
2022/05/09 07:06:29;;;;;;;7.00;5.25;;;;;;;;;;5030622;28;20085;-88
2022/05/09 07:08:54;;;;;;;8.18;5.35;;;;;;;;;;5036190;28;20029;-88
2022/05/09 07:11:19;;;;;;;9.70;5.47;;;;;;;;;;5014612;28;20025;-87
2022/05/09 07:13:45;;;;;;;8.90;4.85;;;;;;;;;;5001302;28;20025;-87
2022/05/09 07:16:11;;;;;;;8.57;5.35;;;;;;;;;;5021240;28;20125;-88
2022/05/09 07:18:38;;;;;;;7.95;5.50;;;;;;;;;;5021060;28;20055;-88
2022/05/09 07:21:05;;;;;;;6.70;5.10;;;;;;;;;;5041108;28;20338;-88
2022/05/09 07:23:31;;;;;;;10.80;5.68;;;;;;;;;;5038663;28;20025;-88
2022/05/09 07:25:56;;;;;;;8.00;4.93;;;;;;;;;;5028970;28;20025;-86
2022/05/09 07:28:22;;;;;;;6.90;4.60;;;;;;;;;;5040389;28;20072;-86
2022/05/09 07:30:49;;;;;;;7.03;4.25;;;;;;;;;;5019772;28;20029;-87
2022/05/09 07:33:16;;;;;;;7.70;5.03;;;;;;;;;;5037934;28;20128;-87
2022/05/09 07:35:43;;;;;;;5.97;5.05;;;;;;;;;;5050654;28;20048;-87
2022/05/09 07:38:09;;;;;;;8.32;5.65;;;;;;;;;;5038436;28;20395;-87
2022/05/09 07:40:34;;;;;;;6.60;5.28;;;;;;;;;;5019998;28;20458;-87
2022/05/09 07:43:00;;;;;;;6.07;5.15;;;;;;;;;;5020763;28;20171;-87
2022/05/09 07:45:25;;;;;;;5.95;4.65;;;;;;;;;;5023195;28;20025;-86
2022/05/09 07:47:51;;;;;;;6.32;4.88;;;;;;;;;;5025867;28;20026;-87
2022/05/09 07:50:17;;;;;;;6.80;4.70;;;;;;;;;;5004453;28;20399;-86
2022/05/09 07:52:43;;;;;;;5.70;4.32;;;;;;;;;;5017568;28;20017;-86
2022/05/09 07:55:15;;;;;;;7.53;4.50;;;;;;;;;;5024895;28;20080;-87
2022/05/09 07:57:40;;;;;;;6.88;5.28;;;;;;;;;;5024541;28;20072;-87
2022/05/09 08:00:07;;;;;;;8.98;5.05;;;;;;;;;;5041279;28;20029;-87
2022/05/09 08:02:33;;;;;;;8.50;5.10;;;;;;;;;;5054774;28;20059;-87
2022/05/09 08:05:00;;;;;;;7.18;5.13;;;;;;;;;;5051294;28;20029;-87
2022/05/09 08:07:25;;;;;;;8.00;5.40;;;;;;;;;;5039649;28;20028;-87
2022/05/09 08:09:50;;;;;;;6.60;4.82;;;;;;;;;;5039348;28;20041;-87
2022/05/09 08:12:16;;;;;;;9.48;5.57;;;;;;;;;;5020365;28;20039;-86
2022/05/09 08:14:43;;;;;;;9.30;5.28;;;;;;;;;;5037038;28;20036;-87
2022/05/09 08:17:09;;;;;;;9.43;5.20;;;;;;;;;;5055504;28;20025;-86
2022/05/09 08:19:36;;;;;;;6.57;5.70;;;;;;;;;;5019816;28;20080;-87
2022/05/09 08:22:02;;;;;;;9.30;5.82;;;;;;;;;;5038197;28;20018;-87
2022/05/09 08:24:28;;;;;;;9.13;6.05;;;;;;;;;;5018823;28;20044;-87
2022/05/09 08:26:54;;;;;;;7.05;5.30;;;;;;;;;;5036655;28;20076;-86
2022/05/09 08:29:19;;;;;;;7.53;5.28;;;;;;;;;;5017076;28;20491;-87
2022/05/09 08:31:45;;;;;;;8.77;5.05;;;;;;;;;;5020057;28;20116;-87
2022/05/09 08:34:10;;;;;;;8.48;5.35;;;;;;;;;;5020267;28;20030;-87
2022/05/09 08:36:53;;;;;;;10.05;5.50;;;;;;;;;;5019430;28;20502;-86
2022/05/09 08:39:22;;;;;;;8.70;5.20;;;;;;;;;;5026164;28;20093;-87
2022/05/09 08:42:00;;;;;;;7.28;4.60;;;;;;;;;;5027042;28;20086;-86
2022/05/09 08:44:44;;;;;;;7.68;4.72;;;;;;;;;;5023725;28;20195;-86
2022/05/09 08:47:38;;;;;;;7.53;4.60;;;;;;;;;;5026103;28;20026;-86
2022/05/09 08:50:34;;;;;;;9.10;4.47;;;;;;;;;;5032905;28;20116;-87
2022/05/09 08:53:02;;;;;;;9.70;4.85;;;;;;;;;;5055278;28;20031;-86
2022/05/09 08:55:35;;;;;;;9.00;4.57;;;;;;;;;;5027685;28;20048;-86
2022/05/09 08:58:12;;;;;;;8.40;5.07;;;;;;;;;;4998107;28;20044;-86
2022/05/09 09:00:38;;;;;;;6.45;4.43;;;;;;;;;;5003766;28;20040;-86
2022/05/09 09:03:13;;;;;;;9.82;5.47;;;;;;;;;;5032307;28;20097;-86
2022/05/09 09:05:44;;;;;;;6.93;4.60;;;;;;;;;;5036562;28;20087;-86
2022/05/09 09:08:28;;;;;;;5.93;4.78;;;;;;;;;;5017730;28;20106;-87
2022/05/09 09:11:19;;;;;;;6.20;4.82;;;;;;;;;;5032025;28;20347;-86
2022/05/09 09:14:16;;;;;;;5.23;4.30;;;;;;;;;;5015497;28;20787;-86
2022/05/09 09:16:45;;;;;;;8.38;4.75;;;;;;;;;;5014759;28;20279;-86
2022/05/09 09:19:19;;;;;;;6.78;5.15;;;;;;;;;;5021214;28;20044;-86
2022/05/09 09:22:00;;;;;;;10.15;5.68;;;;;;;;;;5021831;28;20017;-86
2022/05/09 09:24:49;;;;;;;6.83;4.63;;;;;;;;;;5016544;28;20029;-86
2022/05/09 09:27:53;;;;;;;7.75;4.40;;;;;;;;;;5017077;28;20029;-86
2022/05/09 09:30:21;;;;;;;7.47;4.38;;;;;;;;;;5017061;28;20029;-86
2022/05/09 09:32:57;;;;;;;8.25;5.35;;;;;;;;;;4998426;28;20022;-86
2022/05/09 09:35:50;;;;;;;6.32;4.63;;;;;;;;;;5017290;28;20038;-87
2022/05/09 09:38:34;;;;;;;7.72;5.00;;;;;;;;;;5047686;28;20071;-86
2022/05/09 09:41:20;;;;;;;5.97;4.95;;;;;;;;;;5039576;28;20021;-86
2022/05/09 09:43:48;;;;;;;7.82;4.80;;;;;;;;;;5055847;28;20104;-86
2022/05/09 09:46:22;;;;;;;5.60;4.18;;;;;;;;;;5043568;28;20041;-86
2022/05/09 09:49:04;;;;;;;5.90;4.50;;;;;;;;;;5016861;28;20026;-86
2022/05/09 09:51:30;;;;;;;7.15;4.82;;;;;;;;;;5007194;28;20498;-86
2022/05/09 09:53:56;;;;;;;9.50;5.25;;;;;;;;;;5031750;28;20029;-86
2022/05/09 09:56:23;;;;;;;6.38;4.82;;;;;;;;;;5021368;28;20076;-86
2022/05/09 09:58:52;;;;;;;5.90;4.28;;;;;;;;;;5046645;28;20069;-85
2022/05/09 10:01:24;;;;;;;4.97;4.40;;;;;;;;;;5020635;28;20038;-87
2022/05/09 10:04:14;;;;;;;6.90;4.15;;;;;;;;;;5019793;28;20049;-86
2022/05/09 10:07:14;;;;;;;6.30;4.63;;;;;;;;;;5013541;28;20065;-86
2022/05/09 10:09:41;;;;;;;5.28;4.07;;;;;;;;;;5016933;28;20064;-86
2022/05/09 10:12:34;;;;;;;6.22;4.85;;;;;;;;;;5015645;28;20044;-86
2022/05/09 10:15:02;;;;;;;6.00;4.22;;;;;;;;;;5012397;28;20044;-86
2022/05/09 10:17:30;;;;;;;7.13;4.45;;;;;;;;;;5025663;28;20087;-86
2022/05/09 10:19:58;;;;;;;4.30;3.90;;;;;;;;;;5015684;28;20029;-87
2022/05/09 10:25:22;;;;;;;12.23;4.80;;;;;;;;;;5033912;28;20097;-86
2022/05/09 10:28:13;;;;;;;7.15;5.35;;;;;;;;;;5033918;28;20032;-87
2022/05/09 10:30:43;;;;;;;4.88;4.38;;;;;;;;;;5015756;28;20064;-88
2022/05/09 10:33:20;;;;;;;6.50;4.55;;;;;;;;;;5027810;28;20030;-87
2022/05/09 10:40:04;;;;;;;4.95;4.38;;;;;;;;;;5038821;28;20084;-86
2022/05/09 10:42:37;;;;;;;5.35;4.20;;;;;;;;;;5017875;28;20083;-87
2022/05/09 10:45:10;;;;;;;5.22;3.85;;;;;;;;;;5022245;28;20025;-87
2022/05/09 10:47:42;;;;;;;5.57;4.10;;;;;;;;;;5022236;28;20108;-87
2022/05/09 10:50:32;;;;;;;4.70;4.20;;;;;;;;;;5035694;28;20064;-87
2022/05/09 10:53:20;;;;;;;10.80;4.53;;;;;;;;;;5023044;28;20028;-86
2022/05/09 10:56:16;;;;;;;5.28;3.83;;;;;;;;;;5019484;28;20116;-86
2022/05/09 10:59:03;;;;;;;5.07;3.55;;;;;;;;;;5016944;28;20026;-86
2022/05/09 11:01:39;;;;;;;5.25;3.45;;;;;;;;;;5021604;28;20075;-86
2022/05/09 11:04:05;;;;;;;5.57;3.92;;;;;;;;;;5022016;28;20025;-87
2022/05/09 11:07:01;;;;;;;8.13;3.90;;;;;;;;;;5048119;28;20028;-87
2022/05/09 11:09:50;;;;;;;6.35;4.40;;;;;;;;;;5038358;28;20033;-86
2022/05/09 11:12:20;;;;;;;10.02;3.80;;;;;;;;;;5021146;28;20063;-87
2022/05/09 11:15:16;;;;;;;4.90;4.00;;;;;;;;;;5050624;28;20017;-86
2022/05/09 11:18:04;;;;;;;9.57;4.00;;;;;;;;;;5033394;28;20057;-86
2022/05/09 11:20:51;;;;;;;6.22;3.60;;;;;;;;;;5016493;28;20390;-86
2022/05/09 11:23:45;;;;;;;5.55;3.80;;;;;;;;;;5020112;28;20056;-86
2022/05/09 11:26:25;;;;;;;5.45;3.90;;;;;;;;;;5011146;28;20025;-86
2022/05/09 11:29:24;;;;;;;5.05;3.63;;;;;;;;;;4997796;28;20128;-88
2022/05/09 11:31:55;;;;;;;5.45;3.40;;;;;;;;;;5000526;28;20021;-88
2022/05/09 11:35:01;;;;;;;5.75;3.17;;;;;;;;;;5020008;28;20029;-87
2022/05/09 11:37:49;;;;;;;5.97;3.60;;;;;;;;;;5053647;28;20021;-88
2022/05/09 11:40:33;;;;;;;3.95;3.28;;;;;;;;;;5024432;28;20215;-88
2022/05/09 11:46:23;;;;;;;6.90;3.53;;;;;;;;;;5019077;28;20041;-88
2022/05/09 11:49:19;;;;;;;4.38;3.40;;;;;;;;;;5030487;28;20036;-88
2022/05/09 11:51:48;;;;;;;7.68;3.55;;;;;;;;;;5000763;28;20073;-88
2022/05/09 11:54:27;;;;;;;4.30;3.65;;;;;;;;;;5031532;28;20486;-88
2022/05/09 11:56:54;;;;;;;6.22;3.20;;;;;;;;;;5037351;28;20480;-88
2022/05/09 11:59:29;;;;;;;7.07;3.85;;;;;;;;;;5039386;28;20390;-87
2022/05/09 12:02:12;;;;;;;4.43;2.78;;;;;;;;;;5017740;28;20025;-87
2022/05/09 12:04:42;;;;;;;4.28;2.78;;;;;;;;;;5018810;28;20025;-88
2022/05/09 12:07:26;;;;;;;3.88;2.92;;;;;;;;;;5039872;28;20033;-86
2022/05/09 12:10:15;;;;;;;3.67;2.65;;;;;;;;;;5020753;28;20041;-87
2022/05/09 12:12:55;;;;;;;6.38;2.80;;;;;;;;;;5019586;28;20583;-87
2022/05/09 12:15:23;;;;;;;37.72;4.07;;;;;;;;;;5022933;28;20080;-87
2022/05/09 12:17:57;;;;;;;4.22;3.13;;;;;;;;;;5019581;28;20108;-88
2022/05/09 12:20:27;;;;;;;6.82;2.80;;;;;;;;;;5025026;28;20431;-87
2022/05/09 12:22:59;;;;;;;6.47;2.88;;;;;;;;;;5042269;28;20023;-87
2022/05/09 12:25:34;;;;;;;3.47;3.00;;;;;;;;;;5040512;28;20036;-88
2022/05/09 12:28:04;;;;;;;3.90;3.05;;;;;;;;;;5021169;28;20557;-87
2022/05/09 12:30:36;;;;;;;4.40;2.70;;;;;;;;;;5023210;28;20560;-87
2022/05/09 12:33:14;;;;;;;4.40;2.88;;;;;;;;;;5044152;28;20099;-87
2022/05/09 12:35:44;;;;;;;5.97;2.85;;;;;;;;;;5026810;28;20059;-87
2022/05/09 12:38:12;;;;;;;3.00;2.65;;;;;;;;;;5025247;28;20029;-88
2022/05/09 12:40:37;;;;;;;3.65;2.90;;;;;;;;;;5040864;28;20089;-87
2022/05/09 12:43:04;;;;;;;4.47;3.05;;;;;;;;;;5033036;28;20036;-88
2022/05/09 12:45:30;;;;;;;5.10;2.70;;;;;;;;;;5040280;28;20033;-88
2022/05/09 12:47:57;;;;;;;5.10;3.35;;;;;;;;;;5027996;28;20024;-87
2022/05/09 12:50:32;;;;;;;4.30;2.72;;;;;;;;;;5050363;28;20042;-88
2022/05/09 12:53:02;;;;;;;4.00;3.22;;;;;;;;;;5042502;28;20044;-87
2022/05/09 12:55:56;;;;;;;3.87;3.20;;;;;;;;;;5030104;28;20459;-87
2022/05/09 12:58:40;;;;;;;7.72;2.95;;;;;;;;;;5022019;28;20029;-88
2022/05/09 13:01:15;;;;;;;4.65;3.05;;;;;;;;;;5034086;28;20088;-87
2022/05/09 13:03:45;;;;;;;5.15;2.97;;;;;;;;;;5020845;28;20033;-88
2022/05/09 13:06:21;;;;;;;4.32;2.92;;;;;;;;;;5025332;28;20059;-88
2022/05/09 13:08:47;;;;;;;3.80;2.70;;;;;;;;;;5019370;28;20052;-89
2022/05/09 13:11:17;;;;;;;6.95;2.97;;;;;;;;;;5040863;28;20045;-88
2022/05/09 13:14:02;;;;;;;3.00;2.60;;;;;;;;;;5037452;28;20044;-88
2022/05/09 13:16:40;;;;;;;7.90;2.92;;;;;;;;;;5002349;28;20251;-88
2022/05/09 13:19:13;;;;;;;6.03;2.80;;;;;;;;;;5018363;28;20024;-88
2022/05/09 13:21:40;;;;;;;9.25;3.60;;;;;;;;;;5020267;28;20043;-88
2022/05/09 13:24:08;;;;;;;3.28;2.95;;;;;;;;;;5029374;28;20013;-88
2022/05/09 13:26:45;;;;;;;6.30;2.88;;;;;;;;;;5031814;28;20036;-88
2022/05/09 13:29:11;;;;;;;5.10;3.10;;;;;;;;;;5033576;28;20087;-88
2022/05/09 13:31:43;;;;;;;5.07;2.70;;;;;;;;;;5031059;28;20109;-88
2022/05/09 13:34:22;;;;;;;10.38;2.65;;;;;;;;;;5033000;28;20549;-88
2022/05/09 13:36:49;;;;;;;4.57;2.67;;;;;;;;;;5038478;28;20555;-88
2022/05/09 13:39:35;;;;;;;5.20;2.80;;;;;;;;;;5015748;28;20033;-88
2022/05/09 13:42:07;;;;;;;3.95;2.63;;;;;;;;;;5035780;28;20018;-89
2022/05/09 13:44:33;;;;;;;5.43;2.85;;;;;;;;;;5034221;28;20116;-86
2022/05/09 13:47:06;;;;;;;4.78;3.00;;;;;;;;;;5043864;28;20075;-86
2022/05/09 13:49:33;;;;;;;4.00;3.17;;;;;;;;;;5030029;28;20089;-86
2022/05/09 13:52:03;;;;;;;5.05;3.28;;;;;;;;;;5036427;28;20029;-86
2022/05/09 13:54:29;;;;;;;3.80;2.83;;;;;;;;;;5028385;28;20025;-85
2022/05/09 13:57:16;;;;;;;3.58;2.70;;;;;;;;;;5033539;28;20093;-86
2022/05/09 13:59:43;;;;;;;23.77;3.70;;;;;;;;;;5037758;28;20021;-85
2022/05/09 14:02:13;;;;;;;8.23;3.13;;;;;;;;;;5037689;28;20072;-86
2022/05/09 14:04:42;;;;;;;3.50;2.97;;;;;;;;;;5031138;28;20035;-85
2022/05/09 14:09:53;;;;;;;3.30;2.97;;;;;;;;;;5040708;28;20033;-86
2022/05/09 14:12:21;;;;;;;3.50;2.97;;;;;;;;;;5046563;28;20029;-85
2022/05/09 14:14:58;;;;;;;5.95;2.85;;;;;;;;;;5038503;28;20020;-85
2022/05/09 14:17:29;;;;;;;6.32;3.10;;;;;;;;;;5065065;28;20061;-86
2022/05/09 14:19:58;;;;;;;6.03;2.88;;;;;;;;;;5064565;28;20014;-86
2022/05/09 14:22:26;;;;;;;5.68;3.67;;;;;;;;;;5073020;28;20037;-86
2022/05/09 14:30:43;;;;;;;3.42;2.78;;;;;;;;;;5055532;28;20080;-85
2022/05/09 14:33:36;;;;;;;4.68;2.78;;;;;;;;;;5055823;28;20017;-85
2022/05/09 14:36:04;;;;;;;3.63;2.92;;;;;;;;;;5056908;28;20337;-85
2022/05/09 14:38:38;;;;;;;4.28;2.72;;;;;;;;;;5049544;28;20017;-85
2022/05/09 14:41:37;;;;;;;6.15;3.15;;;;;;;;;;5051046;28;20024;-84
2022/05/09 14:44:15;;;;;;;3.55;2.45;;;;;;;;;;5036069;28;20037;-84
2022/05/09 14:47:03;;;;;;;3.25;2.60;;;;;;;;;;5017258;28;20025;-85
2022/05/09 14:49:32;;;;;;;14.85;3.15;;;;;;;;;;5019954;28;20040;-85
2022/05/09 14:52:34;;;;;;;5.38;2.75;;;;;;;;;;5058373;28;20092;-85
2022/05/09 14:58:23;;;;;;;4.47;2.97;;;;;;;;;;5045825;28;20071;-85
2022/05/09 15:00:58;;;;;;;5.22;3.00;;;;;;;;;;5026098;28;20053;-84
2022/05/09 15:03:25;;;;;;;8.48;2.53;;;;;;;;;;5021963;28;20499;-84
2022/05/09 15:05:52;;;;;;;7.18;2.95;;;;;;;;;;5039384;28;20017;-84
2022/05/09 15:08:22;;;;;;;8.80;3.08;;;;;;;;;;5009809;28;20591;-85
2022/05/09 15:10:50;;;;;;;6.50;3.35;;;;;;;;;;5040282;28;20030;-84
2022/05/09 15:13:18;;;;;;;2.83;2.50;;;;;;;;;;5035248;28;20021;-85
2022/05/09 15:15:53;;;;;;;3.67;2.80;;;;;;;;;;5046106;28;20037;-86
2022/05/09 15:18:20;;;;;;;3.50;2.75;;;;;;;;;;5040954;28;20096;-85
2022/05/09 15:20:47;;;;;;;4.95;2.97;;;;;;;;;;5023462;28;20028;-86
2022/05/09 15:23:12;;;;;;;4.07;2.80;;;;;;;;;;5024139;28;20037;-84
2022/05/09 15:25:46;;;;;;;3.35;2.70;;;;;;;;;;5041864;28;20072;-83
2022/05/09 15:28:11;;;;;;;3.28;2.90;;;;;;;;;;5041268;28;20045;-85
2022/05/09 15:30:36;;;;;;;5.63;2.78;;;;;;;;;;5039080;28;20112;-85
2022/05/09 15:33:02;;;;;;;4.22;2.90;;;;;;;;;;5046575;28;20038;-84
2022/05/09 15:35:27;;;;;;;3.97;2.67;;;;;;;;;;5051537;28;20076;-85
2022/05/09 15:37:53;;;;;;;4.45;2.67;;;;;;;;;;5045683;28;20108;-85
2022/05/09 15:40:45;;;;;;;10.15;2.90;;;;;;;;;;5028217;28;20029;-85
2022/05/09 15:43:19;;;;;;;6.22;4.72;;;;;;;;;;5016472;28;20021;-85
2022/05/09 15:45:45;;;;;;;2.78;2.40;;;;;;;;;;5018628;28;20532;-85
2022/05/09 15:48:12;;;;;;;5.47;3.15;;;;;;;;;;5009010;28;20101;-85
2022/05/09 15:50:37;;;;;;;5.22;3.20;;;;;;;;;;5043746;28;20025;-85
2022/05/09 15:53:03;;;;;;;10.73;3.08;;;;;;;;;;5063399;28;20052;-85
2022/05/09 15:55:29;;;;;;;7.97;2.97;;;;;;;;;;5050448;28;20040;-86
2022/05/09 15:57:56;;;;;;;2.72;2.47;;;;;;;;;;5042533;28;20037;-85
2022/05/09 16:00:22;;;;;;;3.92;2.90;;;;;;;;;;5019529;28;20037;-85
2022/05/09 16:02:49;;;;;;;5.32;2.58;;;;;;;;;;5022347;28;20052;-85
2022/05/09 16:05:16;;;;;;;2.92;2.58;;;;;;;;;;5056277;28;20080;-85
2022/05/09 16:13:10;;;;;;;6.20;3.00;;;;;;;;;;5045151;28;20123;-86
2022/05/09 16:15:38;;;;;;;2.83;2.40;;;;;;;;;;5033506;28;20459;-85
2022/05/09 16:21:32;;;;;;;7.28;2.67;;;;;;;;;;5053428;28;20031;-85
2022/05/09 16:23:57;;;;;;;4.25;2.85;;;;;;;;;;5028833;28;20040;-85
2022/05/09 16:26:29;;;;;;;15.18;3.63;;;;;;;;;;5044858;28;20064;-85
2022/05/09 16:28:56;;;;;;;3.22;2.83;;;;;;;;;;5053693;28;20046;-86
2022/05/09 16:31:24;;;;;;;5.32;3.13;;;;;;;;;;5052667;28;20116;-85
2022/05/09 16:33:52;;;;;;;4.25;2.80;;;;;;;;;;5037572;28;20021;-85
2022/05/09 16:36:18;;;;;;;4.15;2.65;;;;;;;;;;5020686;28;20033;-85
2022/05/09 16:38:45;;;;;;;3.83;2.72;;;;;;;;;;5044059;28;20071;-85
2022/05/09 16:41:12;;;;;;;4.30;3.28;;;;;;;;;;5030838;28;20455;-84
2022/05/09 16:43:41;;;;;;;3.75;2.70;;;;;;;;;;5044692;28;20471;-85
2022/05/09 16:46:14;;;;;;;5.75;3.00;;;;;;;;;;5042694;28;20059;-85
2022/05/09 16:48:41;;;;;;;3.78;2.90;;;;;;;;;;5039903;28;20037;-85
2022/05/09 16:51:08;;;;;;;22.45;3.63;;;;;;;;;;5036649;28;20052;-85
2022/05/09 16:53:33;;;;;;;5.82;2.83;;;;;;;;;;5022801;28;20035;-85
2022/05/09 16:56:00;;;;;;;6.05;2.63;;;;;;;;;;5019994;28;20048;-85
2022/05/09 16:58:25;;;;;;;4.22;3.22;;;;;;;;;;5023088;28;20029;-85
2022/05/09 17:01:42;;;;;;;4.93;3.00;;;;;;;;;;5018781;28;20158;-86
2022/05/09 17:04:16;;;;;;;7.32;3.20;;;;;;;;;;5022768;28;20033;-85
2022/05/09 17:10:38;;;;;;;6.20;3.30;;;;;;;;;;5052540;28;20028;-86
2022/05/09 17:14:02;;;;;;;11.63;2.90;;;;;;;;;;5023612;28;20025;-86
2022/05/09 17:17:13;;;;;;;11.07;3.30;;;;;;;;;;5051768;28;20021;-86
2022/05/09 17:20:24;;;;;;;14.43;3.45;;;;;;;;;;5034850;28;20058;-86
2022/05/09 17:23:08;;;;;;;4.55;3.20;;;;;;;;;;5029306;28;20033;-86
2022/05/09 17:25:42;;;;;;;6.55;3.08;;;;;;;;;;5048774;28;20030;-84
2022/05/09 17:28:09;;;;;;;5.72;2.92;;;;;;;;;;5043333;28;20424;-85
2022/05/09 17:30:35;;;;;;;3.42;2.80;;;;;;;;;;5042877;28;20053;-86
2022/05/09 17:33:01;;;;;;;3.20;2.88;;;;;;;;;;5032747;28;20025;-85
2022/05/09 17:39:05;;;;;;;3.00;2.70;;;;;;;;;;5049934;28;20071;-85
2022/05/09 17:41:31;;;;;;;5.35;3.38;;;;;;;;;;5019864;28;20037;-86
2022/05/09 17:43:58;;;;;;;8.82;3.58;;;;;;;;;;5029594;28;20033;-86
2022/05/09 17:46:30;;;;;;;4.18;2.75;;;;;;;;;;5049491;28;20016;-84
2022/05/09 17:49:12;;;;;;;3.70;2.90;;;;;;;;;;5050346;28;20031;-85
2022/05/09 17:51:37;;;;;;;3.78;3.22;;;;;;;;;;5046732;28;20057;-86